Time;durP1;ratioP1;P1;durP2;ratioP2;P2;SDS_P1;SDS_P2;PMS_P1;PMS_P2;Temp;Humidity;BMP_temperature;BMP_pressure;BME280_temperature;BME280_humidity;BME280_pressure;Samples;Min_cycle;Max_cycle;Signal;HPM_P1;HPM_P2
2022/01/15 00:01:29;;;;;;;;;29.25;24.25;;;;;19.34;35.90;102641.19;5078205;28;51957;-54
2022/01/15 00:03:54;;;;;;;;;27.25;25.50;;;;;19.33;35.67;102636.72;5069731;28;51129;-54
2022/01/15 00:06:20;;;;;;;;;28.75;25.00;;;;;19.33;35.71;102633.97;5056904;28;51058;-55
2022/01/15 00:08:45;;;;;;;;;31.75;28.25;;;;;19.32;35.63;102632.25;5057763;28;51200;-54
2022/01/15 00:11:10;;;;;;;;;32.00;30.75;;;;;19.31;35.61;102627.81;5072275;28;51151;-57
2022/01/15 00:13:38;;;;;;;;;30.25;27.75;;;;;19.30;35.68;102628.84;5077702;28;51287;-56
2022/01/15 00:16:13;;;;;;;;;30.25;26.50;;;;;19.29;35.73;102627.13;5059352;27;51154;-55
2022/01/15 00:18:48;;;;;;;;;34.00;31.50;;;;;19.29;35.74;102627.13;5077835;27;50988;-55
2022/01/15 00:21:14;;;;;;;;;35.75;29.50;;;;;19.28;35.84;102628.16;5077708;28;52642;-55
2022/01/15 00:23:41;;;;;;;;;36.25;28.50;;;;;19.27;35.76;102623.66;5073259;27;51486;-56
2022/01/15 00:26:07;;;;;;;;;34.00;29.75;;;;;19.26;35.65;102625.56;5062774;27;51119;-55
2022/01/15 00:28:32;;;;;;;;;29.25;28.50;;;;;19.25;35.75;102625.72;5091533;27;51011;-55
2022/01/15 00:30:57;;;;;;;;;34.50;29.75;;;;;19.23;35.82;102620.41;5076464;28;50871;-55
2022/01/15 00:33:24;;;;;;;;;38.25;32.00;;;;;19.23;35.70;102623.16;5073945;28;51441;-52
2022/01/15 00:35:49;;;;;;;;;38.00;33.25;;;;;19.23;35.84;102622.28;5078139;28;51120;-53
2022/01/15 00:38:15;;;;;;;;;36.00;32.50;;;;;19.22;35.83;102620.59;5077015;28;51336;-55
2022/01/15 00:40:40;;;;;;;;;37.50;34.00;;;;;19.21;36.03;102611.47;5077260;28;51018;-53
2022/01/15 00:43:05;;;;;;;;;33.25;31.25;;;;;19.21;36.09;102608.72;5076919;28;51057;-53
2022/01/15 00:45:33;;;;;;;;;40.50;35.50;;;;;19.20;35.63;102607.03;5069826;28;51249;-52
2022/01/15 00:47:58;;;;;;;;;37.75;32.75;;;;;19.19;35.98;102602.56;5062418;28;51245;-52
2022/01/15 00:50:24;;;;;;;;;36.75;31.50;;;;;19.19;35.83;102604.44;5056557;28;51469;-53
2022/01/15 00:52:50;;;;;;;;;38.75;34.50;;;;;19.16;35.85;102600.13;5061002;28;51092;-54
2022/01/15 00:55:17;;;;;;;;;38.25;34.75;;;;;19.16;35.75;102602.88;5067848;28;51184;-56
2022/01/15 00:57:42;;;;;;;;;41.00;33.50;;;;;19.17;35.86;102601.00;5062459;28;51046;-55
2022/01/15 01:00:12;;;;;;;;;35.00;31.50;;;;;19.16;35.88;102594.63;5056337;28;51733;-55
2022/01/15 01:02:37;;;;;;;;;39.25;34.50;;;;;19.16;35.76;102600.13;5069740;28;51114;-54
2022/01/15 01:05:03;;;;;;;;;35.75;29.50;;;;;19.16;35.91;102594.63;5057063;27;51300;-54
2022/01/15 01:07:28;;;;;;;;;38.75;33.50;;;;;19.15;35.92;102587.44;5072926;28;50959;-56
2022/01/15 01:10:17;;;;;;;;;38.50;33.00;;;;;19.15;35.85;102586.56;5065130;28;50902;-57
2022/01/15 01:23:20;;;;;;;;;38.00;33.25;;;;;19.10;35.92;102567.00;5076742;28;51587;-57
2022/01/15 01:25:49;;;;;;;;;38.25;33.25;;;;;19.10;35.98;102567.88;5077172;27;51225;-55
2022/01/15 01:28:24;;;;;;;;;39.00;33.50;;;;;19.10;36.01;102567.00;5056829;28;51344;-56
2022/01/15 01:33:29;;;;;;;;;38.25;35.75;;;;;19.09;36.00;102565.31;5062040;28;51208;-53
2022/01/15 01:36:41;;;;;;;;;39.25;34.25;;;;;19.08;36.65;102553.47;5076795;28;51103;-53
2022/01/15 01:41:21;;;;;;;;;36.25;31.50;;;;;19.09;36.08;102557.91;5056499;28;51312;-54
2022/01/15 01:48:40;;;;;;;;;40.75;35.00;;;;;19.07;36.18;102561.84;5066833;28;51281;-57
2022/01/15 01:51:07;;;;;;;;;42.00;34.75;;;;;19.07;36.26;102561.84;5056259;28;51029;-57
2022/01/15 01:53:35;;;;;;;;;40.00;32.50;;;;;19.06;36.11;102560.97;5056604;27;51014;-58
2022/01/15 01:56:00;;;;;;;;;45.75;35.75;;;;;19.04;36.19;102558.41;5056487;28;51024;-55
2022/01/15 01:58:26;;;;;;;;;39.75;35.75;;;;;19.04;36.18;102557.56;5072127;27;51269;-54
2022/01/15 02:00:51;;;;;;;;;52.75;38.75;;;;;19.05;36.13;102548.28;5056376;28;51116;-54
2022/01/15 02:03:16;;;;;;;;;42.50;37.25;;;;;19.04;36.05;102543.81;5058149;28;51095;-56
2022/01/15 02:05:42;;;;;;;;;42.50;35.75;;;;;19.02;36.15;102541.25;5056571;28;51169;-55
2022/01/15 02:08:07;;;;;;;;;44.00;35.75;;;;;19.03;36.09;102531.97;5059457;28;51009;-55
2022/01/15 02:10:34;;;;;;;;;41.50;35.75;;;;;19.01;36.10;102534.06;5076036;27;51872;-56
2022/01/15 02:13:01;;;;;;;;;44.75;36.25;;;;;19.01;36.21;102539.53;5074391;28;51037;-56
2022/01/15 02:15:27;;;;;;;;;41.75;35.00;;;;;19.02;36.41;102532.16;5073192;27;51149;-57
2022/01/15 02:17:53;;;;;;;;;39.75;35.00;;;;;19.00;36.19;102532.34;5070681;28;51154;-56
2022/01/15 02:25:46;;;;;;;;;39.75;34.50;;;;;18.97;36.08;102527.19;5076248;28;51114;-59
2022/01/15 02:28:12;;;;;;;;;32.50;23.00;;;;;18.97;36.14;102527.19;5076721;27;51830;-59
2022/01/15 02:30:38;;;;;;;;;41.00;35.25;;;;;18.97;36.14;102529.94;5075010;28;52025;-56
2022/01/15 02:33:05;;;;;;;;;46.00;36.25;;;;;18.97;35.87;102529.94;5071528;28;51196;-57
2022/01/15 02:35:30;;;;;;;;;41.75;34.50;;;;;18.95;36.05;102523.75;5055937;28;51134;-56
2022/01/15 02:38:02;;;;;;;;;44.00;35.75;;;;;18.96;36.19;102528.19;5056280;28;51536;-56
2022/01/15 02:40:27;;;;;;;;;44.00;35.25;;;;;18.95;36.22;102523.75;5055576;28;52054;-58
2022/01/15 02:42:52;;;;;;;;;37.25;31.75;;;;;18.95;36.21;102521.00;5071668;28;51019;-55
2022/01/15 02:45:22;;;;;;;;;41.25;35.50;;;;;18.94;36.22;102523.91;5065520;27;51623;-53
2022/01/15 02:48:02;;;;;;;;;38.00;34.25;;;;;18.93;36.22;102520.31;5055928;28;51227;-55
2022/01/15 02:50:29;;;;;;;;;41.75;35.25;;;;;18.93;36.14;102520.31;5065435;28;51848;-58
2022/01/15 02:52:54;;;;;;;;;39.75;36.00;;;;;18.92;36.22;102510.38;5074495;28;50966;-52
2022/01/15 02:55:20;;;;;;;;;42.75;37.50;;;;;18.91;36.39;102511.41;5076089;28;51144;-55
2022/01/15 02:57:45;;;;;;;;;40.25;36.00;;;;;18.91;36.11;102496.81;5075732;27;51051;-55
2022/01/15 03:00:11;;;;;;;;;37.50;34.75;;;;;18.91;36.27;102503.16;5064340;28;51042;-54
2022/01/15 03:02:37;;;;;;;;;44.50;35.75;;;;;18.91;36.14;102497.66;5072411;28;51602;-56
2022/01/15 03:05:03;;;;;;;;;44.00;35.75;;;;;18.91;35.99;102486.69;5071203;27;51167;-56
2022/01/15 03:07:28;;;;;;;;;38.25;33.25;;;;;18.91;36.14;102485.81;5055750;28;50896;-57
2022/01/15 03:09:54;;;;;;;;;38.25;33.25;;;;;18.89;36.02;102485.16;5053988;28;52910;-57
2022/01/15 03:12:19;;;;;;;;;40.75;33.75;;;;;18.89;36.32;102488.75;5055302;28;51038;-57
2022/01/15 03:14:47;;;;;;;;;40.50;35.50;;;;;18.89;36.09;102485.16;5055525;28;51035;-57
2022/01/15 03:17:13;;;;;;;;;42.50;38.00;;;;;18.89;35.92;102479.66;5055250;28;51370;-57
2022/01/15 03:19:38;;;;;;;;;41.00;35.50;;;;;18.89;36.16;102487.88;5055810;28;50992;-58
2022/01/15 03:22:04;;;;;;;;;47.75;38.50;;;;;18.88;36.13;102487.03;5055367;28;51145;-57
2022/01/15 03:24:30;;;;;;;;;33.75;31.50;;;;;18.87;36.05;102488.06;5071791;28;51010;-58
2022/01/15 03:26:55;;;;;;;;;42.75;36.00;;;;;18.87;36.29;102489.97;5061561;27;50961;-56
2022/01/15 03:29:21;;;;;;;;;40.50;33.50;;;;;18.85;36.21;102489.25;5054744;28;53101;-53
2022/01/15 03:31:47;;;;;;;;;45.00;36.50;;;;;18.85;36.19;102481.00;5059996;28;51151;-57
2022/01/15 03:34:12;;;;;;;;;44.75;37.00;;;;;18.85;36.29;102464.53;5061399;28;51597;-56
2022/01/15 03:36:38;;;;;;;;;38.00;32.75;;;;;18.84;36.10;102473.81;5056016;28;51211;-57
2022/01/15 03:39:03;;;;;;;;;35.75;32.50;;;;;18.82;36.15;102460.25;5054686;28;51787;-56
2022/01/15 03:41:28;;;;;;;;;47.25;38.25;;;;;18.82;36.36;102457.50;5058227;28;50938;-50
2022/01/15 03:43:54;;;;;;;;;36.25;32.75;;;;;18.81;36.31;102455.78;5077254;28;51064;-51
2022/01/15 03:46:21;;;;;;;;;41.50;36.75;;;;;18.82;36.07;102453.91;5078391;28;51329;-49
2022/01/15 03:48:47;;;;;;;;;40.00;34.50;;;;;18.81;36.14;102460.44;5078048;28;51918;-49
2022/01/15 03:51:13;;;;;;;;;42.25;36.50;;;;;18.80;36.18;102451.34;5078416;28;51068;-52
2022/01/15 03:53:39;;;;;;;;;41.50;35.25;;;;;18.80;36.02;102445.00;5078907;28;51202;-50
2022/01/15 03:56:04;;;;;;;;;48.00;38.00;;;;;18.79;36.21;102449.63;5078191;28;51114;-50
2022/01/15 03:58:30;;;;;;;;;45.00;35.75;;;;;18.79;36.25;102451.50;5077454;27;52260;-50
2022/01/15 04:00:55;;;;;;;;;42.00;36.50;;;;;18.78;36.09;102445.16;5068188;28;51072;-55
2022/01/15 04:03:20;;;;;;;;;39.50;33.50;;;;;18.78;36.38;102441.56;5063435;28;51065;-50
2022/01/15 04:05:46;;;;;;;;;46.00;37.75;;;;;18.79;36.21;102437.78;5076949;28;51099;-53
2022/01/15 04:08:11;;;;;;;;;45.50;37.00;;;;;18.78;36.33;102430.59;5058318;28;51825;-52
2022/01/15 04:10:37;;;;;;;;;41.00;35.50;;;;;18.77;35.90;102424.25;5058119;28;51155;-49
2022/01/15 04:13:03;;;;;;;;;44.50;36.50;;;;;18.77;36.17;102423.38;5057695;28;51820;-49
2022/01/15 04:15:28;;;;;;;;;45.00;35.25;;;;;18.75;36.11;102423.53;5058121;28;51396;-51
2022/01/15 04:17:53;;;;;;;;;35.75;33.00;;;;;18.76;36.06;102433.50;5057269;28;51112;-50
2022/01/15 04:20:22;;;;;;;;;43.75;38.50;;;;;18.75;36.10;102418.03;5072525;28;51077;-50
2022/01/15 04:22:49;;;;;;;;;45.00;40.25;;;;;18.74;36.29;102430.06;5077761;27;51199;-55
2022/01/15 04:25:14;;;;;;;;;48.00;39.00;;;;;18.73;36.17;102420.09;5065265;27;51214;-54
2022/01/15 04:27:41;;;;;;;;;48.00;39.00;;;;;18.73;36.14;102422.84;5067670;27;51766;-54
2022/01/15 04:30:08;;;;;;;;;50.50;39.00;;;;;18.73;36.20;102422.84;5063499;28;51069;-57
2022/01/15 04:32:34;;;;;;;;;48.25;38.25;;;;;18.71;36.26;102413.94;5075123;27;51084;-58
2022/01/15 04:34:59;;;;;;;;;49.00;38.50;;;;;18.71;36.33;102412.03;5072462;28;50992;-56
2022/01/15 04:37:35;;;;;;;;;48.50;39.75;;;;;18.72;35.98;102412.91;5057544;28;51079;-53
2022/01/15 04:40:02;;;;;;;;;46.25;39.00;;;;;18.71;36.51;102414.78;5057573;28;51261;-52
2022/01/15 04:42:29;;;;;;;;;54.25;43.25;;;;;18.70;36.24;102413.06;5057394;28;51187;-53
2022/01/15 04:44:55;;;;;;;;;58.75;47.50;;;;;18.71;36.00;102416.69;5057801;28;51268;-54
2022/01/15 04:47:20;;;;;;;;;63.75;49.50;;;;;18.70;35.86;102417.72;5057324;28;51106;-53
2022/01/15 04:49:45;;;;;;;;;73.50;57.50;;;;;18.69;35.46;102411.38;5057624;28;51154;-58
2022/01/15 04:52:11;;;;;;;;;75.50;59.75;;;;;18.67;35.50;102410.69;5074991;28;51067;-58
2022/01/15 04:54:36;;;;;;;;;73.00;58.00;;;;;18.65;35.22;102412.75;5075757;28;51363;-58
2022/01/15 04:57:02;;;;;;;;;77.50;63.50;;;;;18.62;35.11;102410.28;5057987;28;51679;-58
2022/01/15 04:59:27;;;;;;;;;79.25;65.50;;;;;18.59;34.96;102407.06;5057392;28;51143;-58
2022/01/15 05:01:53;;;;;;;;;81.00;67.75;;;;;18.56;34.70;102405.50;5072438;28;51181;-58
2022/01/15 05:04:18;;;;;;;;;83.50;71.00;;;;;18.53;34.64;102405.84;5072296;28;51189;-58
2022/01/15 05:06:43;;;;;;;;;86.25;74.00;;;;;18.50;34.55;102406.19;5075488;28;51027;-57
2022/01/15 05:09:09;;;;;;;;;87.25;74.00;;;;;18.48;34.39;102407.41;5065796;27;51105;-57
2022/01/15 05:11:47;;;;;;;;;85.50;76.50;;;;;18.42;34.28;102404.28;5076259;28;51663;-55
2022/01/15 05:14:15;;;;;;;;;81.50;71.25;;;;;18.40;34.22;102402.75;5076766;28;51183;-56
2022/01/15 05:16:40;;;;;;;;;84.75;76.50;;;;;18.37;34.27;102401.22;5077154;28;52055;-56
2022/01/15 05:19:06;;;;;;;;;82.75;72.50;;;;;18.33;34.08;102397.09;5076946;27;51052;-55
2022/01/15 05:21:32;;;;;;;;;94.25;82.00;;;;;18.30;34.05;102394.69;5077290;28;51092;-55
2022/01/15 05:23:57;;;;;;;;;89.75;81.25;;;;;18.28;34.03;102391.28;5077313;27;51327;-56
2022/01/15 05:26:23;;;;;;;;;83.25;74.25;;;;;18.26;33.85;102395.22;5076874;27;52651;-55
2022/01/15 05:28:48;;;;;;;;;88.50;77.25;;;;;18.22;33.74;102400.16;5076234;27;51010;-54
2022/01/15 05:31:14;;;;;;;;;82.00;71.50;;;;;18.22;33.89;102397.41;5071295;28;51188;-55
2022/01/15 05:33:39;;;;;;;;;81.50;69.50;;;;;18.16;33.88;102390.75;5056999;28;51285;-55
2022/01/15 05:36:05;;;;;;;;;86.50;77.75;;;;;18.15;34.00;102385.44;5056743;28;51946;-55
2022/01/15 05:38:30;;;;;;;;;87.50;75.75;;;;;18.13;33.94;102382.88;5055264;28;51132;-56
2022/01/15 05:40:55;;;;;;;;;82.25;68.75;;;;;18.12;33.94;102388.50;5056872;28;51032;-60
2022/01/15 05:43:21;;;;;;;;;83.75;67.75;;;;;18.11;34.39;102389.53;5056629;28;51088;-60
2022/01/15 05:45:46;;;;;;;;;82.25;66.75;;;;;18.12;34.36;102391.22;5063988;28;51694;-55
2022/01/15 05:48:11;;;;;;;;;78.50;67.25;;;;;18.10;34.25;102394.16;5057502;28;51177;-57
2022/01/15 05:50:37;;;;;;;;;77.75;61.50;;;;;18.11;34.54;102392.28;5056723;28;51087;-59
2022/01/15 05:53:03;;;;;;;;;72.50;57.50;;;;;18.11;34.87;102392.28;5056793;28;50946;-58
2022/01/15 05:55:28;;;;;;;;;72.25;55.50;;;;;18.11;34.84;102392.28;5056505;28;51721;-57
2022/01/15 05:57:53;;;;;;;;;77.75;59.00;;;;;18.10;34.83;102402.38;5056213;28;51036;-51
2022/01/15 06:00:19;;;;;;;;;69.25;54.50;;;;;18.11;35.01;102405.97;5056586;28;50986;-55
2022/01/15 06:02:44;;;;;;;;;69.75;55.50;;;;;18.14;35.17;102403.78;5056325;28;51014;-54
2022/01/15 06:05:10;;;;;;;;;73.00;56.75;;;;;18.21;34.87;102398.44;5056233;28;51808;-54
2022/01/15 06:07:35;;;;;;;;;69.25;55.25;;;;;18.27;35.18;102408.75;5071285;28;51074;-55
2022/01/15 06:10:01;;;;;;;;;67.75;54.50;;;;;18.37;35.14;102403.09;5074112;28;51660;-55
2022/01/15 06:12:32;;;;;;;;;66.25;51.25;;;;;18.44;35.25;102402.25;5072583;27;51604;-53
2022/01/15 06:14:58;;;;;;;;;67.25;52.50;;;;;18.53;35.07;102405.84;5060370;28;52825;-58
2022/01/15 06:17:24;;;;;;;;;64.75;51.00;;;;;18.61;35.23;102402.25;5066104;28;52334;-59
2022/01/15 06:19:49;;;;;;;;;66.50;52.00;;;;;18.68;35.01;102393.19;5055982;28;51060;-57
2022/01/15 06:22:15;;;;;;;;;64.25;52.00;;;;;18.75;35.17;102402.41;5061006;28;51022;-57
2022/01/15 06:24:40;;;;;;;;;60.50;47.00;;;;;18.82;35.25;102394.34;5075174;28;51857;-58
2022/01/15 06:27:08;;;;;;;;;58.50;46.50;;;;;18.89;35.16;102389.91;5086229;27;51194;-57
2022/01/15 06:29:33;;;;;;;;;60.25;48.75;;;;;18.96;34.99;102392.78;5096805;27;50973;-59
2022/01/15 06:31:59;;;;;;;;;63.00;48.50;;;;;19.01;35.07;102385.75;5074940;27;51069;-60
2022/01/15 06:34:24;;;;;;;;;54.75;43.50;;;;;19.09;34.97;102390.38;5055684;28;51863;-60
2022/01/15 06:36:49;;;;;;;;;58.50;47.75;;;;;19.15;34.86;102391.53;5055750;28;51260;-59
2022/01/15 06:39:15;;;;;;;;;58.00;44.75;;;;;19.22;34.90;102392.56;5055897;28;51073;-54
2022/01/15 06:41:40;;;;;;;;;59.00;48.25;;;;;19.27;34.83;102387.38;5071808;27;50967;-56
2022/01/15 06:44:05;;;;;;;;;62.25;48.75;;;;;19.32;35.06;102382.22;5053989;28;52638;-59
2022/01/15 06:46:31;;;;;;;;;55.50;44.25;;;;;19.38;35.06;102378.75;5055713;28;51055;-51
2022/01/15 06:48:56;;;;;;;;;58.75;46.50;;;;;19.43;35.11;102380.97;5055655;28;51050;-51
2022/01/15 06:51:21;;;;;;;;;60.75;48.50;;;;;19.47;35.07;102380.41;5057672;28;51286;-51
2022/01/15 06:53:47;;;;;;;;;57.50;45.75;;;;;19.52;35.18;102388.16;5055381;28;50926;-54
2022/01/15 06:56:12;;;;;;;;;53.50;43.00;;;;;19.54;35.25;102383.31;5060590;28;51164;-55
2022/01/15 06:58:38;;;;;;;;;52.00;42.00;;;;;19.57;34.90;102382.97;5055553;28;50994;-54
2022/01/15 07:01:03;;;;;;;;;52.50;42.00;;;;;19.61;35.13;102387.09;5058535;28;50882;-55
2022/01/15 07:03:28;;;;;;;;;56.25;46.50;;;;;19.66;35.04;102370.91;5064908;27;51754;-57
2022/01/15 07:05:54;;;;;;;;;60.50;48.00;;;;;19.71;35.17;102367.66;5055668;28;51252;-55
2022/01/15 07:08:19;;;;;;;;;60.00;47.00;;;;;19.75;35.39;102368.97;5067115;28;51124;-54
2022/01/15 07:10:45;;;;;;;;;58.00;46.50;;;;;19.77;35.00;102362.25;5055868;28;51367;-55
2022/01/15 07:13:10;;;;;;;;;53.75;43.50;;;;;19.82;35.10;102361.72;5054834;28;52786;-59
2022/01/15 07:15:36;;;;;;;;;60.00;48.75;;;;;19.88;35.47;102363.75;5055236;28;51150;-58
2022/01/15 07:18:02;;;;;;;;;58.50;45.00;;;;;19.93;35.34;102360.47;5058798;28;52060;-55
2022/01/15 07:20:28;;;;;;;;;60.25;48.00;;;;;19.99;35.86;102366.06;5059255;28;51317;-59
2022/01/15 07:22:54;;;;;;;;;52.50;41.75;;;;;20.07;35.61;102356.91;5058659;28;51060;-55
2022/01/15 07:25:20;;;;;;;;;57.50;45.00;;;;;20.14;35.90;102355.16;5058932;28;51085;-56
2022/01/15 07:27:46;;;;;;;;;54.75;44.25;;;;;20.22;36.13;102360.59;5068742;27;51138;-59
2022/01/15 07:30:13;;;;;;;;;49.75;41.50;;;;;20.30;35.75;102378.91;5061131;28;50994;-51
2022/01/15 07:32:40;;;;;;;;;61.50;47.50;;;;;20.33;35.86;102362.06;5062758;27;51302;-59
2022/01/15 07:35:06;;;;;;;;;58.00;47.75;;;;;20.36;35.52;102365.28;5058442;28;51021;-56
2022/01/15 07:37:32;;;;;;;;;62.00;49.75;;;;;20.40;35.25;102360.25;5058561;28;51028;-58
2022/01/15 07:39:58;;;;;;;;;62.25;49.00;;;;;20.44;35.21;102353.38;5058812;28;51274;-60
2022/01/15 07:42:24;;;;;;;;;63.00;48.00;;;;;20.45;35.11;102349.59;5058146;28;51110;-59
2022/01/15 07:44:49;;;;;;;;;58.25;44.25;;;;;20.47;35.31;102353.00;5068063;28;51109;-59
2022/01/15 07:47:15;;;;;;;;;53.25;44.00;;;;;20.50;34.97;102351.75;5068530;27;51066;-60
2022/01/15 07:49:40;;;;;;;;;51.75;43.50;;;;;20.53;35.26;102357.78;5078710;27;51413;-59
2022/01/15 07:52:06;;;;;;;;;57.50;46.25;;;;;20.57;35.24;102356.34;5078243;28;50995;-57
2022/01/15 07:54:31;;;;;;;;;58.25;45.75;;;;;20.60;34.84;102352.34;5078642;28;50912;-60
2022/01/15 07:56:58;;;;;;;;;58.00;45.25;;;;;20.64;35.55;102359.22;5066858;28;51351;-58
2022/01/15 07:59:24;;;;;;;;;54.00;45.50;;;;;20.69;35.60;102363.09;5078822;27;51163;-59
2022/01/15 08:01:50;;;;;;;;;55.75;43.50;;;;;20.73;35.34;102358.91;5078257;28;51871;-59
2022/01/15 08:04:15;;;;;;;;;58.25;45.50;;;;;20.78;35.55;102360.28;5070178;28;51152;-56
2022/01/15 08:06:41;;;;;;;;;54.25;44.00;;;;;20.84;35.88;102356.75;5062199;28;51116;-59
2022/01/15 08:09:08;;;;;;;;;58.00;45.00;;;;;20.89;35.91;102355.16;5077854;27;51215;-57
2022/01/15 08:11:34;;;;;;;;;51.25;42.75;;;;;20.93;35.77;102339.09;5078651;28;51737;-59
2022/01/15 08:13:59;;;;;;;;;58.00;44.50;;;;;20.98;35.40;102344.91;5075698;27;51258;-58
2022/01/15 08:16:25;;;;;;;;;59.25;47.25;;;;;21.00;35.67;102349.19;5058042;28;51011;-58
2022/01/15 08:18:50;;;;;;;;;64.50;50.00;;;;;21.02;35.34;102346.22;5058065;28;50966;-57
2022/01/15 08:21:16;;;;;;;;;65.25;50.25;;;;;21.06;35.55;102346.72;5057590;28;51869;-56
2022/01/15 08:23:41;;;;;;;;;61.75;49.75;;;;;21.08;35.08;102348.25;5068843;28;51038;-57
2022/01/15 08:26:07;;;;;;;;;62.25;48.50;;;;;21.10;35.26;102340.63;5068761;27;51264;-60
2022/01/15 08:28:32;;;;;;;;;62.75;49.25;;;;;21.14;34.77;102354.88;5097068;27;51438;-58
2022/01/15 08:30:58;;;;;;;;;60.00;48.25;;;;;21.17;34.77;102349.00;5079869;27;51175;-57
2022/01/15 08:33:23;;;;;;;;;60.50;48.00;;;;;21.18;34.99;102342.44;5078163;28;51101;-55
2022/01/15 08:35:49;;;;;;;;;58.00;48.00;;;;;21.21;34.90;102344.81;5077896;28;51207;-55
2022/01/15 08:38:14;;;;;;;;;63.50;49.25;;;;;21.23;34.58;102340.81;5073590;28;51378;-56
2022/01/15 08:40:40;;;;;;;;;63.00;50.00;;;;;21.26;34.32;102340.47;5071942;28;51806;-57
2022/01/15 08:43:05;;;;;;;;;62.75;49.50;;;;;21.30;34.87;102344.53;5079717;27;51056;-55
2022/01/15 08:45:31;;;;;;;;;62.25;47.25;;;;;21.36;34.75;102342.03;5080995;27;51118;-58
2022/01/15 08:47:56;;;;;;;;;62.00;48.75;;;;;21.40;34.33;102344.25;5080605;27;51017;-58
2022/01/15 08:50:23;;;;;;;;;59.00;47.25;;;;;21.46;34.33;102343.47;5070735;28;51012;-55
2022/01/15 08:52:48;;;;;;;;;58.75;47.25;;;;;21.50;34.44;102338.44;5057197;28;51033;-58
2022/01/15 08:55:15;;;;;;;;;63.50;48.50;;;;;21.52;34.47;102333.56;5057275;28;51106;-56
2022/01/15 08:57:40;;;;;;;;;59.50;47.25;;;;;21.54;34.28;102345.25;5064786;28;51411;-55
2022/01/15 09:00:11;;;;;;;;;63.75;50.75;;;;;21.53;33.72;102352.69;5077016;27;51157;-51
2022/01/15 09:02:37;;;;;;;;;61.00;49.50;;;;;21.53;34.18;102358.19;5058527;28;51185;-55
2022/01/15 09:05:04;;;;;;;;;67.50;50.75;;;;;21.55;33.84;102355.22;5057627;28;51167;-54
2022/01/15 09:07:29;;;;;;;;;58.00;46.00;;;;;21.57;34.02;102362.28;5066551;27;51216;-58
2022/01/15 09:09:54;;;;;;;;;55.75;45.50;;;;;21.59;34.35;102351.06;5074817;28;52229;-57
2022/01/15 09:12:22;;;;;;;;;59.00;48.25;;;;;21.62;33.95;102350.66;5064130;28;51111;-57
2022/01/15 09:14:52;;;;;;;;;58.75;47.00;;;;;21.63;34.60;102352.38;5063658;28;51105;-58
2022/01/15 09:17:19;;;;;;;;;58.75;44.75;;;;;21.66;34.33;102349.22;5062855;28;51157;-57
2022/01/15 09:19:44;;;;;;;;;52.75;43.25;;;;;21.67;34.37;102350.91;5066786;28;51959;-58
2022/01/15 09:22:11;;;;;;;;;54.50;43.25;;;;;21.71;34.11;102357.78;5076101;28;51041;-58
2022/01/15 09:24:37;;;;;;;;;56.00;45.25;;;;;21.73;34.62;102352.91;5076895;28;50994;-56
2022/01/15 09:30:12;;;;;;;;;56.25;46.25;;;;;21.77;34.50;102348.72;5087485;27;50975;-57
2022/01/15 09:32:33;;;;;;;;;52.00;42.00;;;;;21.87;34.09;102345.63;5057735;28;51650;-58
2022/01/15 09:34:58;;;;;;;;;49.00;41.25;;;;;21.89;34.38;102347.16;5067555;28;51026;-58
2022/01/15 09:37:23;;;;;;;;;54.75;45.00;;;;;21.96;34.24;102354.66;5075774;27;51120;-59
2022/01/15 09:39:50;;;;;;;;;54.00;42.50;;;;;22.00;34.00;102353.22;5062005;28;50965;-60
2022/01/15 09:42:16;;;;;;;;;55.25;44.75;;;;;22.04;34.01;102362.81;5056247;28;51475;-58
2022/01/15 09:44:43;;;;;;;;;54.75;45.00;;;;;22.05;34.04;102367.28;5056898;28;51211;-58
2022/01/15 09:47:11;;;;;;;;;60.25;47.75;;;;;22.03;33.60;102367.47;5064640;28;51024;-58
2022/01/15 09:49:43;;;;;;;;;62.75;49.50;;;;;22.01;33.28;102358.53;5076229;27;51267;-58
2022/01/15 09:52:08;;;;;;;;;60.75;49.00;;;;;22.01;33.41;102360.44;5056392;27;51555;-58
2022/01/15 09:54:34;;;;;;;;;62.25;50.25;;;;;22.02;32.91;102354.72;5064038;28;51259;-59
2022/01/15 09:56:59;;;;;;;;;62.50;47.75;;;;;22.06;32.97;102356.06;5076867;28;51096;-60
2022/01/15 09:59:24;;;;;;;;;58.50;47.25;;;;;22.10;33.28;102342.75;5057138;28;50966;-59
2022/01/15 10:01:50;;;;;;;;;56.75;47.00;;;;;22.16;33.36;102347.47;5071172;28;51047;-59
2022/01/15 10:04:15;;;;;;;;;60.50;47.75;;;;;22.20;33.48;102337.75;5061622;28;51057;-59
2022/01/15 10:07:10;;;;;;;;;58.00;46.00;;;;;22.25;33.49;102337.13;5057384;28;51099;-59
2022/01/15 10:09:37;;;;;;;;;58.00;47.00;;;;;22.30;33.44;102345.66;5055861;28;51860;-58
2022/01/15 10:12:03;;;;;;;;;54.75;46.00;;;;;22.33;33.72;102348.91;5057035;28;51068;-58
2022/01/15 10:14:40;;;;;;;;;58.50;47.25;;;;;22.34;33.34;102335.97;5069284;28;50962;-58
2022/01/15 10:17:19;;;;;;;;;61.00;47.25;;;;;22.33;33.29;102348.06;5075825;27;51004;-58
2022/01/15 10:19:45;;;;;;;;;76.00;62.75;;;;;22.26;32.01;102347.97;5075593;27;51008;-57
2022/01/15 10:22:13;;;;;;;;;82.50;72.25;;;;;22.17;31.34;102354.69;5075799;27;51008;-57
2022/01/15 10:24:41;;;;;;;;;82.00;69.75;;;;;22.04;31.07;102355.38;5075830;27;51295;-57
2022/01/15 10:27:32;;;;;;;;;87.75;80.75;;;;;21.88;30.60;102356.50;5086645;27;51259;-58
2022/01/15 10:30:10;;;;;;;;;88.00;80.75;;;;;21.70;30.74;102344.19;5055345;27;51029;-59
2022/01/15 10:32:41;;;;;;;;;89.50;82.50;;;;;21.56;30.16;102346.75;5068697;28;51101;-58
2022/01/15 10:35:16;;;;;;;;;82.25;75.50;;;;;21.44;30.70;102340.03;5075754;28;51092;-58
2022/01/15 10:37:52;;;;;;;;;84.00;75.50;;;;;21.35;30.27;102335.69;5073554;28;51070;-49
2022/01/15 10:40:19;;;;;;;;;88.00;82.00;;;;;21.28;30.05;102324.59;5055411;28;50994;-57
2022/01/15 10:42:56;;;;;;;;;87.25;75.50;;;;;21.24;29.88;102337.00;5054903;28;51593;-56
2022/01/15 10:45:23;;;;;;;;;79.75;71.50;;;;;21.21;30.42;102320.00;5055170;28;51165;-55
2022/01/15 10:47:52;;;;;;;;;82.00;71.75;;;;;21.14;30.77;102322.66;5055112;28;51056;-55
2022/01/15 10:50:29;;;;;;;;;84.50;75.75;;;;;21.06;31.06;102311.75;5054073;28;51778;-54
2022/01/15 10:52:58;;;;;;;;;80.50;64.75;;;;;21.02;31.46;102315.91;5061713;28;51104;-55
2022/01/15 10:55:28;;;;;;;;;81.25;70.50;;;;;21.00;31.62;102307.84;5060030;28;51063;-54
2022/01/15 10:57:59;;;;;;;;;77.00;63.75;;;;;20.98;31.42;102301.69;5056821;28;52034;-55
2022/01/15 11:00:36;;;;;;;;;73.25;58.00;;;;;20.98;32.03;102309.09;5071220;28;51046;-53
2022/01/15 11:03:05;;;;;;;;;71.50;58.50;;;;;20.95;32.08;102302.06;5074146;28;51883;-53
2022/01/15 11:05:42;;;;;;;;;75.25;58.75;;;;;20.93;33.07;102298.63;5073899;28;51345;-53
2022/01/15 11:08:26;;;;;;;;;70.75;57.00;;;;;20.92;32.87;102296.06;5075238;28;51035;-54
2022/01/15 11:11:02;;;;;;;;;65.25;51.75;;;;;20.91;33.00;102300.72;5069521;28;52057;-55
2022/01/15 11:13:42;;;;;;;;;65.25;54.00;;;;;20.90;33.55;102298.16;5054205;28;51071;-54
2022/01/15 11:16:12;;;;;;;;;65.00;49.50;;;;;20.90;33.46;102298.16;5054193;28;51176;-55
2022/01/15 11:18:40;;;;;;;;;65.25;51.25;;;;;20.89;33.81;102297.31;5056697;28;51020;-58
2022/01/15 11:21:10;;;;;;;;;65.50;51.50;;;;;20.88;33.74;102290.09;5077236;27;51052;-56
2022/01/15 11:23:37;;;;;;;;;64.25;51.75;;;;;20.89;33.99;102290.94;5073659;28;51058;-54
2022/01/15 11:26:08;;;;;;;;;66.75;54.50;;;;;20.89;33.66;102289.06;5071656;27;51176;-53
2022/01/15 11:28:34;;;;;;;;;66.00;51.75;;;;;20.88;33.54;102279.09;5075041;27;51416;-55
2022/01/15 11:31:05;;;;;;;;;64.25;50.75;;;;;20.88;33.67;102281.84;5054843;28;51359;-54
2022/01/15 11:33:33;;;;;;;;;64.75;52.00;;;;;20.89;34.51;102277.19;5054023;28;51678;-53
2022/01/15 11:35:59;;;;;;;;;71.50;53.25;;;;;20.89;34.85;102275.28;5055255;28;51030;-55
2022/01/15 11:38:39;;;;;;;;;66.75;52.25;;;;;20.91;34.43;102264.06;5054412;28;51163;-55